sensor_id;sensor_type;location;lat;lon;timestamp;pressure;altitude;pressure_sealevel;temperature;humidity
5703;BME280;2876;51.738;10.050;2023-03-24T00:01:02;98041.19;;;11.62;92.92
5703;BME280;2876;51.738;10.050;2023-03-24T00:07:05;98050.41;;;11.66;94.13
5703;BME280;2876;51.738;10.050;2023-03-24T00:13:07;98053.50;;;11.47;95.26
5703;BME280;2876;51.738;10.050;2023-03-24T00:19:10;98055.47;;;11.51;95.76
5703;BME280;2876;51.738;10.050;2023-03-24T00:25:19;98046.03;;;11.37;96.72
5703;BME280;2876;51.738;10.050;2023-03-24T00:31:24;98043.00;;;11.45;97.01
5703;BME280;2876;51.738;10.050;2023-03-24T00:37:26;98044.03;;;11.44;98.03
5703;BME280;2876;51.738;10.050;2023-03-24T00:43:29;98050.34;;;11.50;98.56
5703;BME280;2876;51.738;10.050;2023-03-24T00:49:32;98033.41;;;11.49;99.25
5703;BME280;2876;51.738;10.050;2023-03-24T00:55:45;98025.22;;;11.56;99.79
5703;BME280;2876;51.738;10.050;2023-03-24T01:01:48;98012.88;;;11.83;99.94
5703;BME280;2876;51.738;10.050;2023-03-24T01:07:50;98001.59;;;11.69;100.00
5703;BME280;2876;51.738;10.050;2023-03-24T01:13:53;97997.66;;;11.89;100.00
5703;BME280;2876;51.738;10.050;2023-03-24T01:19:56;97991.91;;;11.97;100.00
5703;BME280;2876;51.738;10.050;2023-03-24T01:25:58;97984.81;;;12.08;100.00
5703;BME280;2876;51.738;10.050;2023-03-24T01:32:00;97954.06;;;12.32;100.00
5703;BME280;2876;51.738;10.050;2023-03-24T01:38:08;97941.00;;;12.58;100.00
5703;BME280;2876;51.738;10.050;2023-03-24T01:44:34;97923.16;;;12.35;100.00
5703;BME280;2876;51.738;10.050;2023-03-24T01:50:38;97914.88;;;12.36;100.00
5703;BME280;2876;51.738;10.050;2023-03-24T01:56:46;97911.53;;;12.29;100.00
5703;BME280;2876;51.738;10.050;2023-03-24T02:02:58;97902.50;;;12.02;100.00
5703;BME280;2876;51.738;10.050;2023-03-24T02:09:03;97896.00;;;12.14;100.00
5703;BME280;2876;51.738;10.050;2023-03-24T02:15:06;97897.59;;;11.99;100.00
5703;BME280;2876;51.738;10.050;2023-03-24T02:28:42;97894.44;;;12.18;100.00
5703;BME280;2876;51.738;10.050;2023-03-24T02:54:14;97857.56;;;12.75;96.30
5703;BME280;2876;51.738;10.050;2023-03-24T03:06:38;97843.19;;;12.86;95.13
5703;BME280;2876;51.738;10.050;2023-03-24T03:12:43;97835.91;;;13.08;92.78
5703;BME280;2876;51.738;10.050;2023-03-24T03:19:02;97841.09;;;13.15;92.89
5703;BME280;2876;51.738;10.050;2023-03-24T03:25:06;97821.47;;;12.92;93.60
5703;BME280;2876;51.738;10.050;2023-03-24T03:31:13;97811.69;;;13.08;93.79
5703;BME280;2876;51.738;10.050;2023-03-24T03:43:30;97782.25;;;12.75;95.43
5703;BME280;2876;51.738;10.050;2023-03-24T03:49:34;97779.38;;;12.59;97.35
5703;BME280;2876;51.738;10.050;2023-03-24T03:55:37;97784.56;;;12.44;98.29
5703;BME280;2876;51.738;10.050;2023-03-24T04:01:39;97779.31;;;12.54;98.71
5703;BME280;2876;51.738;10.050;2023-03-24T04:08:18;97764.53;;;12.35;99.00
5703;BME280;2876;51.738;10.050;2023-03-24T04:15:05;97761.19;;;12.23;100.00
5703;BME280;2876;51.738;10.050;2023-03-24T04:34:12;97742.53;;;12.38;100.00
5703;BME280;2876;51.738;10.050;2023-03-24T04:40:18;97730.03;;;12.49;100.00
5703;BME280;2876;51.738;10.050;2023-03-24T04:46:22;97728.72;;;12.29;100.00
5703;BME280;2876;51.738;10.050;2023-03-24T04:52:24;97708.34;;;12.33;100.00
5703;BME280;2876;51.738;10.050;2023-03-24T04:58:28;97712.47;;;12.41;100.00
5703;BME280;2876;51.738;10.050;2023-03-24T05:04:30;97695.00;;;12.43;100.00
5703;BME280;2876;51.738;10.050;2023-03-24T05:10:33;97696.94;;;12.48;100.00
5703;BME280;2876;51.738;10.050;2023-03-24T05:16:35;97693.06;;;12.39;100.00
5703;BME280;2876;51.738;10.050;2023-03-24T05:22:37;97691.50;;;12.43;100.00
5703;BME280;2876;51.738;10.050;2023-03-24T05:28:39;97685.41;;;12.26;100.00
5703;BME280;2876;51.738;10.050;2023-03-24T05:34:41;97677.84;;;12.44;100.00
5703;BME280;2876;51.738;10.050;2023-03-24T05:40:43;97683.56;;;12.53;100.00
5703;BME280;2876;51.738;10.050;2023-03-24T05:46:45;97690.31;;;12.56;100.00
5703;BME280;2876;51.738;10.050;2023-03-24T05:52:47;97688.59;;;12.72;100.00
5703;BME280;2876;51.738;10.050;2023-03-24T05:58:49;97690.88;;;12.58;100.00
5703;BME280;2876;51.738;10.050;2023-03-24T06:04:52;97680.19;;;12.63;100.00
5703;BME280;2876;51.738;10.050;2023-03-24T06:11:01;97699.59;;;12.43;100.00
5703;BME280;2876;51.738;10.050;2023-03-24T06:17:05;97702.69;;;12.57;100.00
5703;BME280;2876;51.738;10.050;2023-03-24T06:23:07;97689.06;;;12.63;100.00
5703;BME280;2876;51.738;10.050;2023-03-24T06:29:11;97688.28;;;12.95;100.00
5703;BME280;2876;51.738;10.050;2023-03-24T06:35:15;97693.56;;;12.85;100.00
5703;BME280;2876;51.738;10.050;2023-03-24T06:41:17;97690.97;;;13.22;98.67
5703;BME280;2876;51.738;10.050;2023-03-24T06:47:19;97701.41;;;13.51;95.59
5703;BME280;2876;51.738;10.050;2023-03-24T06:53:22;97694.41;;;13.50;94.66
5703;BME280;2876;51.738;10.050;2023-03-24T06:59:24;97703.06;;;13.57;93.70
5703;BME280;2876;51.738;10.050;2023-03-24T07:05:25;97698.81;;;13.66;92.91
5703;BME280;2876;51.738;10.050;2023-03-24T07:11:28;97703.84;;;13.52;93.65
5703;BME280;2876;51.738;10.050;2023-03-24T07:17:30;97738.66;;;13.59;94.44
5703;BME280;2876;51.738;10.050;2023-03-24T07:23:32;97765.97;;;13.40;95.75
5703;BME280;2876;51.738;10.050;2023-03-24T07:29:34;97786.44;;;12.87;99.62
5703;BME280;2876;51.738;10.050;2023-03-24T07:35:38;97812.75;;;12.19;96.52
5703;BME280;2876;51.738;10.050;2023-03-24T07:41:40;97805.44;;;11.81;99.07
5703;BME280;2876;51.738;10.050;2023-03-24T07:47:44;97808.28;;;11.58;99.85
5703;BME280;2876;51.738;10.050;2023-03-24T07:53:46;97808.59;;;11.78;98.98
5703;BME280;2876;51.738;10.050;2023-03-24T07:59:48;97816.50;;;12.18;98.57
5703;BME280;2876;51.738;10.050;2023-03-24T08:05:50;97825.09;;;12.37;99.26
5703;BME280;2876;51.738;10.050;2023-03-24T08:11:52;97819.34;;;12.73;98.35
5703;BME280;2876;51.738;10.050;2023-03-24T08:17:54;97812.63;;;12.97;96.92
5703;BME280;2876;51.738;10.050;2023-03-24T08:23:57;97823.47;;;13.56;92.44
5703;BME280;2876;51.738;10.050;2023-03-24T08:29:59;97842.84;;;14.17;90.85
5703;BME280;2876;51.738;10.050;2023-03-24T08:36:01;97850.91;;;14.60;87.85
5703;BME280;2876;51.738;10.050;2023-03-24T08:42:04;97863.44;;;14.81;86.13
5703;BME280;2876;51.738;10.050;2023-03-24T08:48:08;97864.75;;;14.31;85.21
5703;BME280;2876;51.738;10.050;2023-03-24T08:54:10;97878.69;;;14.55;84.74
5703;BME280;2876;51.738;10.050;2023-03-24T09:00:15;97891.31;;;15.02;81.92
5703;BME280;2876;51.738;10.050;2023-03-24T09:06:17;97896.63;;;15.44;75.92
5703;BME280;2876;51.738;10.050;2023-03-24T09:12:19;97890.69;;;15.58;74.71
5703;BME280;2876;51.738;10.050;2023-03-24T09:18:21;97905.25;;;15.46;71.61
5703;BME280;2876;51.738;10.050;2023-03-24T09:24:23;97913.19;;;14.95;72.62
5703;BME280;2876;51.738;10.050;2023-03-24T09:30:25;97903.66;;;14.40;75.21
5703;BME280;2876;51.738;10.050;2023-03-24T09:36:30;97909.97;;;14.19;74.80
5703;BME280;2876;51.738;10.050;2023-03-24T09:42:37;97891.50;;;14.01;72.89
5703;BME280;2876;51.738;10.050;2023-03-24T09:48:54;97890.34;;;13.91;70.68
5703;BME280;2876;51.738;10.050;2023-03-24T09:54:58;97875.88;;;14.03;69.40
5703;BME280;2876;51.738;10.050;2023-03-24T10:01:00;97883.94;;;14.03;65.61
5703;BME280;2876;51.738;10.050;2023-03-24T10:07:42;97874.56;;;14.05;64.01
5703;BME280;2876;51.738;10.050;2023-03-24T10:13:53;97888.53;;;14.39;64.94
5703;BME280;2876;51.738;10.050;2023-03-24T10:20:35;97906.25;;;14.62;64.53
5703;BME280;2876;51.738;10.050;2023-03-24T10:32:59;97926.34;;;14.44;64.69
5703;BME280;2876;51.738;10.050;2023-03-24T10:39:02;97933.84;;;15.27;65.20
5703;BME280;2876;51.738;10.050;2023-03-24T10:45:50;97928.28;;;16.92;57.65
5703;BME280;2876;51.738;10.050;2023-03-24T10:52:00;97922.19;;;17.25;55.70
5703;BME280;2876;51.738;10.050;2023-03-24T10:58:34;97919.41;;;16.56;58.89
5703;BME280;2876;51.738;10.050;2023-03-24T11:04:39;97917.81;;;17.35;57.18
5703;BME280;2876;51.738;10.050;2023-03-24T11:10:43;97920.88;;;18.17;54.68
5703;BME280;2876;51.738;10.050;2023-03-24T11:16:45;97922.81;;;19.22;52.24
5703;BME280;2876;51.738;10.050;2023-03-24T11:23:25;97922.81;;;18.98;51.95
5703;BME280;2876;51.738;10.050;2023-03-24T11:29:33;97923.38;;;18.42;52.88
5703;BME280;2876;51.738;10.050;2023-03-24T11:35:39;97902.59;;;18.28;52.86
5703;BME280;2876;51.738;10.050;2023-03-24T11:48:40;97923.22;;;19.11;47.89
5703;BME280;2876;51.738;10.050;2023-03-24T11:54:49;97931.28;;;18.05;48.98
5703;BME280;2876;51.738;10.050;2023-03-24T12:01:34;97960.25;;;17.00;49.69
5703;BME280;2876;51.738;10.050;2023-03-24T12:15:05;98004.41;;;14.93;56.19
5703;BME280;2876;51.738;10.050;2023-03-24T12:21:44;98013.97;;;14.69;56.67
5703;BME280;2876;51.738;10.050;2023-03-24T12:34:37;97979.16;;;15.83;57.32
5703;BME280;2876;51.738;10.050;2023-03-24T12:41:02;97989.41;;;15.70;53.54
5703;BME280;2876;51.738;10.050;2023-03-24T13:00:09;97965.38;;;15.84;53.53
5703;BME280;2876;51.738;10.050;2023-03-24T13:06:26;97963.50;;;16.66;53.51
5703;BME280;2876;51.738;10.050;2023-03-24T13:12:43;97962.56;;;17.92;47.02
5703;BME280;2876;51.738;10.050;2023-03-24T13:18:55;97958.13;;;16.82;49.74
5703;BME280;2876;51.738;10.050;2023-03-24T13:25:01;97959.22;;;16.04;50.69
5703;BME280;2876;51.738;10.050;2023-03-24T13:31:07;97966.09;;;15.59;49.33
5703;BME280;2876;51.738;10.050;2023-03-24T13:37:21;97963.06;;;15.35;51.23
5703;BME280;2876;51.738;10.050;2023-03-24T13:43:28;97956.16;;;15.65;48.28
5703;BME280;2876;51.738;10.050;2023-03-24T13:49:32;97956.72;;;15.82;49.40
5703;BME280;2876;51.738;10.050;2023-03-24T13:55:37;97974.47;;;15.58;51.94
5703;BME280;2876;51.738;10.050;2023-03-24T14:01:43;97962.00;;;17.40;47.01
5703;BME280;2876;51.738;10.050;2023-03-24T14:07:48;97971.38;;;16.47;48.48
5703;BME280;2876;51.738;10.050;2023-03-24T14:13:52;97966.19;;;17.02;49.54
5703;BME280;2876;51.738;10.050;2023-03-24T14:26:00;97975.19;;;16.77;48.33
5703;BME280;2876;51.738;10.050;2023-03-24T14:32:02;97973.53;;;16.71;49.49
5703;BME280;2876;51.738;10.050;2023-03-24T14:38:24;97961.06;;;15.93;51.54
5703;BME280;2876;51.738;10.050;2023-03-24T14:50:53;97969.00;;;15.37;51.13
5703;BME280;2876;51.738;10.050;2023-03-24T14:56:57;97970.13;;;15.57;51.29
5703;BME280;2876;51.738;10.050;2023-03-24T15:03:01;97960.91;;;15.42;52.42
5703;BME280;2876;51.738;10.050;2023-03-24T15:09:08;97963.84;;;15.31;52.68
5703;BME280;2876;51.738;10.050;2023-03-24T15:15:21;97962.22;;;15.35;53.09
5703;BME280;2876;51.738;10.050;2023-03-24T15:21:39;97962.16;;;16.84;49.03
5703;BME280;2876;51.738;10.050;2023-03-24T15:27:48;97964.47;;;19.18;43.35
5703;BME280;2876;51.738;10.050;2023-03-24T15:33:51;97960.41;;;19.63;43.08
5703;BME280;2876;51.738;10.050;2023-03-24T15:39:54;97949.66;;;18.47;44.31
5703;BME280;2876;51.738;10.050;2023-03-24T15:58:29;97917.25;;;15.76;50.00
5703;BME280;2876;51.738;10.050;2023-03-24T16:04:33;97927.28;;;16.01;50.30
5703;BME280;2876;51.738;10.050;2023-03-24T16:10:38;97920.19;;;15.64;51.68
5703;BME280;2876;51.738;10.050;2023-03-24T16:16:41;97922.25;;;15.32;53.89
5703;BME280;2876;51.738;10.050;2023-03-24T16:22:45;97924.34;;;15.14;54.41
5703;BME280;2876;51.738;10.050;2023-03-24T16:28:48;97950.22;;;15.78;51.59
5703;BME280;2876;51.738;10.050;2023-03-24T16:34:51;97964.38;;;16.26;56.99
5703;BME280;2876;51.738;10.050;2023-03-24T16:40:55;97945.09;;;15.82;57.28
5703;BME280;2876;51.738;10.050;2023-03-24T16:46:58;97956.03;;;14.82;61.25
5703;BME280;2876;51.738;10.050;2023-03-24T16:53:00;97959.75;;;13.79;65.68
5703;BME280;2876;51.738;10.050;2023-03-24T16:59:05;97969.97;;;13.28;67.95
5703;BME280;2876;51.738;10.050;2023-03-24T17:05:29;97985.75;;;13.03;69.63
5703;BME280;2876;51.738;10.050;2023-03-24T17:11:52;98022.41;;;12.87;71.08
5703;BME280;2876;51.738;10.050;2023-03-24T17:17:55;98047.59;;;12.47;70.56
5703;BME280;2876;51.738;10.050;2023-03-24T17:23:57;98067.53;;;11.89;79.18
5703;BME280;2876;51.738;10.050;2023-03-24T17:29:59;98063.22;;;11.24;85.14
5703;BME280;2876;51.738;10.050;2023-03-24T17:36:02;98107.66;;;10.97;86.12
5703;BME280;2876;51.738;10.050;2023-03-24T17:42:04;98154.13;;;10.67;90.27
5703;BME280;2876;51.738;10.050;2023-03-24T17:48:06;98143.09;;;10.15;94.22
5703;BME280;2876;51.738;10.050;2023-03-24T17:54:08;98119.56;;;9.87;96.90
5703;BME280;2876;51.738;10.050;2023-03-24T18:00:14;98057.72;;;9.58;98.49
5703;BME280;2876;51.738;10.050;2023-03-24T18:06:17;98054.38;;;9.63;97.62
5703;BME280;2876;51.738;10.050;2023-03-24T18:12:19;98045.19;;;9.71;97.10
5703;BME280;2876;51.738;10.050;2023-03-24T18:18:21;98061.81;;;9.91;96.59
5703;BME280;2876;51.738;10.050;2023-03-24T18:24:23;98070.19;;;9.64;97.13
5703;BME280;2876;51.738;10.050;2023-03-24T18:30:26;98079.31;;;9.75;96.33
5703;BME280;2876;51.738;10.050;2023-03-24T18:36:28;98082.28;;;9.85;95.73
5703;BME280;2876;51.738;10.050;2023-03-24T18:42:32;98084.75;;;9.87;94.79
5703;BME280;2876;51.738;10.050;2023-03-24T18:48:38;98096.44;;;9.74;93.82
5703;BME280;2876;51.738;10.050;2023-03-24T18:54:43;98091.47;;;9.59;93.46
5703;BME280;2876;51.738;10.050;2023-03-24T19:00:51;98089.97;;;9.45;93.25
5703;BME280;2876;51.738;10.050;2023-03-24T19:06:54;98112.84;;;9.23;94.88
5703;BME280;2876;51.738;10.050;2023-03-24T19:12:57;98132.16;;;9.25;96.29
5703;BME280;2876;51.738;10.050;2023-03-24T19:18:59;98141.84;;;9.62;94.49
5703;BME280;2876;51.738;10.050;2023-03-24T19:25:01;98138.34;;;9.99;90.20
5703;BME280;2876;51.738;10.050;2023-03-24T19:31:09;98132.41;;;9.97;89.84
5703;BME280;2876;51.738;10.050;2023-03-24T19:37:13;98145.34;;;10.18;90.37
5703;BME280;2876;51.738;10.050;2023-03-24T19:43:15;98123.97;;;10.11;91.11
5703;BME280;2876;51.738;10.050;2023-03-24T19:49:17;98108.16;;;9.91;91.95
5703;BME280;2876;51.738;10.050;2023-03-24T19:55:19;98111.38;;;10.12;91.83
5703;BME280;2876;51.738;10.050;2023-03-24T20:01:21;98108.75;;;10.24;90.88
5703;BME280;2876;51.738;10.050;2023-03-24T20:07:24;98104.75;;;9.84;92.07
5703;BME280;2876;51.738;10.050;2023-03-24T20:13:27;98098.81;;;9.64;93.22
5703;BME280;2876;51.738;10.050;2023-03-24T20:19:29;98086.31;;;9.58;92.67
5703;BME280;2876;51.738;10.050;2023-03-24T20:25:31;98086.16;;;9.34;92.68
5703;BME280;2876;51.738;10.050;2023-03-24T20:31:33;98082.16;;;9.25;93.25
5703;BME280;2876;51.738;10.050;2023-03-24T20:37:37;98088.63;;;9.18;92.39
5703;BME280;2876;51.738;10.050;2023-03-24T20:43:39;98095.47;;;9.13;92.29
5703;BME280;2876;51.738;10.050;2023-03-24T20:49:41;98076.81;;;9.25;90.71
5703;BME280;2876;51.738;10.050;2023-03-24T20:55:43;98077.03;;;9.24;89.70
5703;BME280;2876;51.738;10.050;2023-03-24T21:01:49;98077.25;;;9.04;89.95
5703;BME280;2876;51.738;10.050;2023-03-24T21:07:51;98069.66;;;9.01;89.74
5703;BME280;2876;51.738;10.050;2023-03-24T21:13:53;98076.59;;;8.83;90.04
5703;BME280;2876;51.738;10.050;2023-03-24T21:19:55;98057.03;;;8.64;89.97
5703;BME280;2876;51.738;10.050;2023-03-24T21:25:57;98053.25;;;8.47;90.43
5703;BME280;2876;51.738;10.050;2023-03-24T21:31:59;98048.41;;;8.37;91.85
5703;BME280;2876;51.738;10.050;2023-03-24T21:38:01;98049.00;;;8.39;91.47
5703;BME280;2876;51.738;10.050;2023-03-24T21:44:07;98059.31;;;8.29;92.63
5703;BME280;2876;51.738;10.050;2023-03-24T21:50:11;98057.06;;;8.26;93.07
5703;BME280;2876;51.738;10.050;2023-03-24T21:56:13;98062.25;;;8.53;92.94
5703;BME280;2876;51.738;10.050;2023-03-24T22:02:15;98052.47;;;8.40;93.25
5703;BME280;2876;51.738;10.050;2023-03-24T22:08:21;98039.56;;;8.37;92.96
5703;BME280;2876;51.738;10.050;2023-03-24T22:14:27;98032.03;;;8.27;93.18
5703;BME280;2876;51.738;10.050;2023-03-24T22:20:29;98028.22;;;8.10;93.18
5703;BME280;2876;51.738;10.050;2023-03-24T22:26:32;98021.84;;;8.11;94.27
5703;BME280;2876;51.738;10.050;2023-03-24T22:32:38;98023.28;;;8.13;93.99
5703;BME280;2876;51.738;10.050;2023-03-24T22:38:40;98033.22;;;8.31;94.22
5703;BME280;2876;51.738;10.050;2023-03-24T22:44:43;98028.06;;;8.36;93.43
5703;BME280;2876;51.738;10.050;2023-03-24T22:50:45;98016.50;;;8.43;93.50
5703;BME280;2876;51.738;10.050;2023-03-24T22:56:47;98032.75;;;8.41;93.84
5703;BME280;2876;51.738;10.050;2023-03-24T23:02:49;98029.88;;;8.43;94.62
5703;BME280;2876;51.738;10.050;2023-03-24T23:08:52;98028.44;;;8.40;94.29
5703;BME280;2876;51.738;10.050;2023-03-24T23:14:54;98039.13;;;8.65;94.33
5703;BME280;2876;51.738;10.050;2023-03-24T23:21:10;98031.31;;;8.88;93.49
5703;BME280;2876;51.738;10.050;2023-03-24T23:27:13;98020.31;;;9.33;91.55
5703;BME280;2876;51.738;10.050;2023-03-24T23:33:16;98020.59;;;9.62;89.72
5703;BME280;2876;51.738;10.050;2023-03-24T23:39:19;98025.13;;;9.61;89.37
5703;BME280;2876;51.738;10.050;2023-03-24T23:45:20;98017.56;;;9.58;89.66
5703;BME280;2876;51.738;10.050;2023-03-24T23:51:23;98014.16;;;9.81;88.83
5703;BME280;2876;51.738;10.050;2023-03-24T23:57:25;98016.09;;;9.74;89.03
